Главная страница
METAR-TAF:

METAR-TAF

Аэропорты :

Ларнака, Кипр

широта: 34-53N, долгота: 033-38E, высота над уровнем моря: 2 м

Текущие метеонаблюдения

Эта сводка был подготовлена 30 минут назад, в 21:00 UTC
Ветер 4 Узел от северо-западный
Температура 11°C
Влажность 66%
Давление 1018 hPa
Видимость 10 км и более
небольшая облачность на высоте 4500 фута

METAR: LCLK 122100Z 32004KT 9999 FEW045 11/05 Q1018 NOSIG

Время: 23:30 (21:30 UTC)

Прогноз

Эта сводка был подготовлена 4 часа и 0 минут назад, в 17:30 UTC
Прогноз действительный с 12-го 18 UTC до 13-го 18 UTC
Ветер 12 Узел от западный-юго-западный
Видимость 10 км и более
Отдельные облака на высоте 2500 фута
изменения
С 12-го 19 UTC до 12-го 22 UTC
Ветер 9 Узел от северо-западный

TAF: LCLK 121730Z 1218/1318 24012KT 9999 SCT025 BECMG 1219/1222 32009KT

Метеонаблюдения и прогнозы для более 4000 аэропортов (сводки METAR и TAF).

Имеющиеся станции представлены на карте желтыми и красными точками.

Чтобы увидеть название станции, наведите на нее мышь.

Затем щелкните, чтобы увидеть метеонаблюдения и метеопрогнозы.

Управление картой: чтобы увеличить масштаб, щелкните зеленые кнопки с черным крестиком; чтобы уменьшить масштаб, щелкните зеленую кнопку с тире; для просмотра соседних карт щелкайте зеленые стрелки.


METAR-TAF: